createdAt,value
2023-05-04T00:01:45.706Z,9.15
2023-05-04T00:06:47.890Z,8.85
2023-05-04T00:11:50.007Z,9.02
2023-05-04T00:16:52.664Z,8.88
2023-05-04T00:21:54.941Z,8.35
2023-05-04T00:26:57.138Z,8.55
2023-05-04T00:31:59.470Z,7.93
2023-05-04T00:37:02.019Z,7.78
2023-05-04T00:42:04.275Z,8.90
2023-05-04T00:47:06.749Z,8.30
2023-05-04T00:52:10.562Z,8.35
2023-05-04T00:57:13.170Z,8.57
2023-05-04T01:02:15.367Z,8.13
2023-05-04T01:07:26.445Z,8.52
2023-05-04T01:12:43.454Z,8.23
2023-05-04T01:17:45.656Z,7.88
2023-05-04T01:22:49.325Z,7.68
2023-05-04T01:28:10.015Z,8.65
2023-05-04T01:33:12.462Z,8.67
2023-05-04T01:38:14.553Z,8.80
2023-05-04T01:43:16.578Z,8.50
2023-05-04T01:48:18.816Z,8.98
2023-05-04T01:53:20.873Z,8.73
2023-05-04T01:58:22.978Z,8.65
2023-05-04T02:03:26.066Z,9.00
2023-05-04T02:08:28.299Z,8.13
2023-05-04T02:13:30.332Z,9.00
2023-05-04T02:18:32.372Z,8.35
2023-05-04T02:23:34.581Z,8.80
2023-05-04T02:28:36.889Z,9.02
2023-05-04T02:33:39.026Z,8.55
2023-05-04T02:38:41.352Z,8.65
2023-05-04T02:43:43.953Z,8.82
2023-05-04T02:48:46.145Z,9.07
2023-05-04T02:53:48.218Z,8.70
2023-05-04T02:58:50.329Z,9.40
2023-05-04T03:03:52.439Z,7.82
2023-05-04T03:08:54.639Z,9.18
2023-05-04T03:13:56.799Z,10.00
2023-05-04T03:18:59.024Z,9.68
2023-05-04T03:24:01.489Z,9.07
2023-05-04T03:29:03.690Z,8.75
2023-05-04T03:34:05.922Z,9.45
2023-05-04T03:39:08.436Z,9.75
2023-05-04T03:44:11.810Z,9.13
2023-05-04T03:49:14.217Z,9.27
2023-05-04T03:54:16.436Z,9.65
2023-05-04T03:59:18.569Z,9.43
2023-05-04T04:04:21.815Z,10.00
2023-05-04T04:09:24.016Z,9.60
2023-05-04T04:14:27.189Z,9.75
2023-05-04T04:19:29.775Z,9.82
2023-05-04T04:24:33.531Z,10.05
2023-05-04T04:29:35.956Z,10.48
2023-05-04T04:34:38.662Z,10.13
2023-05-04T04:39:41.010Z,9.50
2023-05-04T04:44:43.139Z,9.57
2023-05-04T04:49:45.173Z,9.80
2023-05-04T04:54:47.207Z,10.05
2023-05-04T04:59:49.436Z,9.65
2023-05-04T05:04:51.655Z,9.80
2023-05-04T05:09:53.828Z,9.07
2023-05-04T05:14:55.997Z,9.73
2023-05-04T05:19:58.365Z,9.63
2023-05-04T05:25:00.853Z,9.70
2023-05-04T05:30:04.290Z,8.95
2023-05-04T05:35:07.091Z,9.90
2023-05-04T05:40:09.568Z,9.40
2023-05-04T05:45:11.770Z,8.55
2023-05-04T05:50:13.898Z,10.32
2023-05-04T05:55:15.925Z,9.02
2023-05-04T06:00:18.577Z,6.75
2023-05-04T06:05:20.847Z,9.73
2023-05-04T06:10:23.109Z,7.90
2023-05-04T06:15:25.155Z,8.18
2023-05-04T06:20:27.374Z,7.95
2023-05-04T06:25:29.489Z,8.07
2023-05-04T06:30:31.626Z,7.68
2023-05-04T06:35:33.684Z,8.32
2023-05-04T06:40:35.743Z,7.88
2023-05-04T06:45:38.217Z,8.20
2023-05-04T06:50:41.038Z,6.90
2023-05-04T06:55:43.120Z,7.38
2023-05-04T07:00:45.357Z,7.18
2023-05-04T07:05:48.852Z,7.30
2023-05-04T07:10:50.863Z,6.82
2023-05-04T07:15:53.030Z,8.05
2023-05-04T07:21:01.643Z,6.85
2023-05-04T07:26:13.311Z,6.40
2023-05-04T07:31:15.963Z,6.32
2023-05-04T07:36:18.085Z,6.00
2023-05-04T07:41:20.265Z,5.95
2023-05-04T07:46:22.459Z,6.57
2023-05-04T07:51:24.510Z,6.30
2023-05-04T07:56:26.603Z,7.00
2023-05-04T08:01:28.740Z,6.30
2023-05-04T08:06:30.888Z,6.55
2023-05-04T08:11:34.613Z,5.60
2023-05-04T08:16:37.082Z,6.07
2023-05-04T08:21:40.327Z,5.78
2023-05-04T08:26:43.795Z,5.95
2023-05-04T08:31:47.337Z,6.13
2023-05-04T08:36:49.395Z,6.75
2023-05-04T08:41:51.419Z,5.53
2023-05-04T08:46:54.216Z,7.22
2023-05-04T08:51:59.112Z,6.82
2023-05-04T08:57:03.727Z,7.40
2023-05-04T09:02:06.225Z,6.07
2023-05-04T09:07:08.382Z,7.05
2023-05-04T09:12:10.434Z,6.85
2023-05-04T09:17:17.612Z,7.07
2023-05-04T09:22:19.842Z,5.97
2023-05-04T09:27:22.318Z,6.82
2023-05-04T09:32:24.441Z,7.50
2023-05-04T09:37:26.896Z,7.10
2023-05-04T09:42:29.733Z,6.72
2023-05-04T09:47:39.464Z,5.78
2023-05-04T09:52:43.970Z,7.53
2023-05-04T09:57:47.294Z,5.80
2023-05-04T10:02:50.133Z,6.15
2023-05-04T10:07:52.613Z,6.60
2023-05-04T10:12:54.808Z,7.50
2023-05-04T10:18:08.941Z,5.20
2023-05-04T10:23:48.975Z,7.60
2023-05-04T10:29:10.476Z,6.05
2023-05-04T10:39:27.212Z,7.13
2023-05-04T10:44:34.276Z,6.45
2023-05-04T10:49:36.505Z,5.80
2023-05-04T10:54:40.412Z,6.05
2023-05-04T10:59:43.423Z,5.22
2023-05-04T11:04:45.609Z,6.57
2023-05-04T11:09:48.199Z,5.80
2023-05-04T11:14:50.316Z,7.15
2023-05-04T11:19:52.956Z,7.55
2023-05-04T11:24:56.309Z,5.55
2023-05-04T11:30:00.877Z,5.38
2023-05-04T11:35:04.933Z,6.22
2023-05-04T11:40:13.017Z,6.85
2023-05-04T11:45:18.143Z,6.45
2023-05-04T11:50:21.024Z,5.55
2023-05-04T11:55:30.496Z,7.47
2023-05-04T12:00:49.100Z,6.43
2023-05-04T12:05:55.987Z,5.95
2023-05-04T12:11:20.507Z,5.38
2023-05-04T12:16:23.340Z,4.45
2023-05-04T12:21:25.452Z,3.92
2023-05-04T12:26:28.075Z,4.25
2023-05-04T12:31:30.390Z,4.00
2023-05-04T12:36:32.821Z,2.90
2023-05-04T12:41:34.995Z,3.42
2023-05-04T12:46:37.438Z,3.08
2023-05-04T12:51:40.071Z,3.45
2023-05-04T12:56:42.214Z,3.45
2023-05-04T13:01:44.575Z,3.55
2023-05-04T13:06:48.453Z,3.22
2023-05-04T13:11:50.790Z,3.80
2023-05-04T13:16:53.881Z,2.67
2023-05-04T13:21:56.187Z,3.72
2023-05-04T13:26:58.274Z,3.90
2023-05-04T13:32:00.494Z,3.20
2023-05-04T13:37:03.001Z,2.47
2023-05-04T13:42:05.228Z,3.47
2023-05-04T13:47:07.424Z,4.10
2023-05-04T13:52:09.688Z,2.08
2023-05-04T13:57:11.684Z,3.80
2023-05-04T14:02:13.731Z,3.40
2023-05-04T14:07:16.749Z,3.03
2023-05-04T14:12:20.508Z,3.65
2023-05-04T14:17:22.787Z,3.50
2023-05-04T14:22:24.958Z,3.50
2023-05-04T14:27:27.405Z,3.15
2023-05-04T14:32:29.579Z,2.63
2023-05-04T14:37:31.657Z,3.17
2023-05-04T14:42:34.248Z,2.50
2023-05-04T14:47:36.626Z,2.47
2023-05-04T14:52:39.003Z,2.90
2023-05-04T14:57:41.579Z,2.45
2023-05-04T15:02:43.704Z,2.88
2023-05-04T15:07:45.863Z,2.67
2023-05-04T15:12:48.038Z,2.75
2023-05-04T15:17:50.572Z,2.65
2023-05-04T15:22:54.004Z,2.40
2023-05-04T15:27:56.264Z,2.35
2023-05-04T15:32:58.337Z,2.00
2023-05-04T15:38:01.320Z,2.45
2023-05-04T15:43:03.709Z,2.45
2023-05-04T15:48:06.002Z,3.25
2023-05-04T15:53:08.133Z,3.75
2023-05-04T15:58:11.146Z,2.53
2023-05-04T16:03:13.234Z,2.10
2023-05-04T16:08:15.269Z,2.63
2023-05-04T16:13:17.341Z,3.13
2023-05-04T16:18:19.907Z,3.13
2023-05-04T16:23:22.045Z,2.97
2023-05-04T16:28:24.130Z,2.78
2023-05-04T16:33:26.706Z,3.60
2023-05-04T16:38:29.329Z,3.10
2023-05-04T16:43:31.905Z,2.85
2023-05-04T16:48:34.167Z,2.83
2023-05-04T16:53:36.205Z,2.72
2023-05-04T16:58:38.403Z,2.80
2023-05-04T17:03:40.763Z,2.53
2023-05-04T17:08:44.300Z,2.90
2023-05-04T17:13:46.564Z,2.70
2023-05-04T17:18:49.078Z,2.42
2023-05-04T17:23:51.280Z,3.42
2023-05-04T17:28:53.689Z,2.83
2023-05-04T17:33:56.025Z,2.47
2023-05-04T17:38:58.426Z,3.17
2023-05-04T17:44:00.685Z,2.40
2023-05-04T17:49:03.064Z,2.95
2023-05-04T17:54:05.369Z,2.78
2023-05-04T17:59:07.664Z,2.60
2023-05-04T18:04:09.719Z,2.90
2023-05-04T18:09:11.810Z,2.60
2023-05-04T18:14:13.869Z,2.58
2023-05-04T18:19:23.598Z,3.03
2023-05-04T18:24:25.733Z,3.15
2023-05-04T18:29:27.851Z,2.78
2023-05-04T18:34:29.922Z,2.80
2023-05-04T18:39:31.920Z,2.95
2023-05-04T18:44:33.936Z,3.50
2023-05-04T18:49:35.937Z,3.38
2023-05-04T18:54:37.998Z,3.13
2023-05-04T18:59:40.989Z,3.00
2023-05-04T19:04:43.233Z,3.10
2023-05-04T19:09:47.891Z,3.20
2023-05-04T19:14:51.079Z,3.47
2023-05-04T19:19:53.436Z,3.05
2023-05-04T19:24:55.712Z,3.55
2023-05-04T19:29:57.891Z,2.95
2023-05-04T19:34:59.885Z,3.67
2023-05-04T19:40:02.114Z,3.75
2023-05-04T19:45:06.240Z,3.67
2023-05-04T19:50:10.780Z,3.50
2023-05-04T19:55:13.004Z,3.95
2023-05-04T20:00:17.054Z,3.90
2023-05-04T20:05:19.144Z,3.78
2023-05-04T20:10:21.625Z,4.63
2023-05-04T20:15:23.747Z,5.18
2023-05-04T20:20:26.658Z,4.28
2023-05-04T20:25:29.164Z,4.38
2023-05-04T20:30:31.266Z,5.22
2023-05-04T20:35:33.341Z,4.40
2023-05-04T20:40:35.394Z,4.53
2023-05-04T20:45:37.446Z,4.28
2023-05-04T20:50:39.925Z,4.15
2023-05-04T20:55:43.397Z,4.35
2023-05-04T21:00:45.806Z,4.68
2023-05-04T21:05:47.834Z,4.88
2023-05-04T21:10:50.184Z,5.32
2023-05-04T21:15:52.369Z,4.95
2023-05-04T21:20:54.463Z,4.63
2023-05-04T21:26:01.389Z,4.70
2023-05-04T21:31:07.025Z,5.10
2023-05-04T21:36:15.926Z,5.40
2023-05-04T21:41:17.949Z,5.15
2023-05-04T21:46:19.947Z,4.55
2023-05-04T21:51:22.007Z,4.65
2023-05-04T21:56:24.076Z,5.18
2023-05-04T22:01:26.867Z,4.57
2023-05-04T22:06:29.038Z,5.57
2023-05-04T22:11:31.154Z,5.43
2023-05-04T22:16:33.401Z,5.55
2023-05-04T22:21:36.386Z,5.88
2023-05-04T22:26:40.760Z,7.05
2023-05-04T22:31:42.835Z,7.78
2023-05-04T22:36:44.921Z,5.57
2023-05-04T22:41:46.994Z,8.00
2023-05-04T22:46:49.363Z,7.97
2023-05-04T22:51:51.831Z,8.27
2023-05-04T22:56:53.833Z,8.38
2023-05-04T23:01:56.054Z,6.85
2023-05-04T23:06:59.001Z,7.03
2023-05-04T23:12:02.216Z,5.50
2023-05-04T23:17:04.454Z,6.55
2023-05-04T23:22:06.971Z,8.93
2023-05-04T23:27:09.072Z,8.98
2023-05-04T23:32:11.153Z,6.88
2023-05-04T23:37:13.374Z,9.45
2023-05-04T23:42:15.369Z,6.55
2023-05-04T23:47:17.448Z,6.13
2023-05-04T23:52:19.504Z,12.23
2023-05-04T23:57:21.644Z,11.55
